Time;durP1;ratioP1;P1;durP2;ratioP2;P2;SDS_P1;SDS_P2;PMS_P1;PMS_P2;Temp;Humidity;BMP_temperature;BMP_pressure;BME280_temperature;BME280_humidity;BME280_pressure;Samples;Min_cycle;Max_cycle;Signal;HPM_P1;HPM_P2
2022/07/23 00:00:15;;;;;;;12.77;10.68;;;18.80;99.90;;;;;;5135495;27;20187;-49
2022/07/23 00:02:41;;;;;;;12.70;10.18;;;18.80;99.90;;;;;;5135446;27;20611;-54
2022/07/23 00:05:07;;;;;;;12.30;11.00;;;18.80;99.90;;;;;;5134697;27;20164;-55
2022/07/23 00:07:34;;;;;;;15.93;12.10;;;18.90;99.90;;;;;;5135422;27;20633;-50
2022/07/23 00:09:59;;;;;;;14.77;12.35;;;18.90;99.90;;;;;;5135067;27;20309;-50
2022/07/23 00:12:25;;;;;;;16.00;12.68;;;18.90;99.90;;;;;;5135102;27;20232;-57
2022/07/23 00:14:51;;;;;;;16.05;13.15;;;19.00;99.90;;;;;;5135003;27;20164;-55
2022/07/23 00:17:16;;;;;;;16.98;12.95;;;19.00;99.90;;;;;;5135027;27;20171;-54
2022/07/23 00:19:42;;;;;;;16.35;12.52;;;18.90;99.90;;;;;;5135490;27;20177;-48
2022/07/23 00:22:08;;;;;;;17.13;15.20;;;18.90;99.90;;;;;;5134855;27;20159;-50
2022/07/23 00:24:33;;;;;;;19.88;15.40;;;19.00;99.90;;;;;;5134772;27;20511;-46
2022/07/23 00:26:59;;;;;;;18.30;15.30;;;19.00;99.90;;;;;;5134813;27;20164;-46
2022/07/23 00:29:24;;;;;;;21.38;16.80;;;19.00;99.90;;;;;;5134816;27;20658;-45
2022/07/23 00:31:50;;;;;;;20.10;17.38;;;18.90;99.90;;;;;;5134576;27;20252;-47
2022/07/23 00:34:15;;;;;;;23.92;16.67;;;18.90;99.90;;;;;;5134679;27;20160;-49
2022/07/23 00:36:41;;;;;;;24.58;18.27;;;19.00;99.90;;;;;;5134956;27;20619;-45
2022/07/23 00:39:07;;;;;;;21.65;17.92;;;18.90;99.90;;;;;;5134445;27;20164;-46
2022/07/23 00:41:32;;;;;;;23.45;18.15;;;18.90;99.90;;;;;;5134541;27;20217;-44
2022/07/23 00:44:18;;;;;;;20.30;17.27;;;18.90;99.90;;;;;;5134421;27;20164;-47
2022/07/23 00:46:46;;;;;;;22.27;17.83;;;18.80;99.90;;;;;;5134683;27;20156;-49
2022/07/23 00:49:12;;;;;;;22.58;18.30;;;18.90;99.90;;;;;;5134856;27;20172;-52
2022/07/23 00:51:37;;;;;;;23.30;18.65;;;18.90;99.90;;;;;;5134098;27;20218;-56
2022/07/23 00:54:03;;;;;;;23.73;18.17;;;19.00;99.90;;;;;;5133617;27;20164;-46
2022/07/23 00:56:30;;;;;;;24.52;18.23;;;18.90;99.90;;;;;;5134093;27;20171;-44
2022/07/23 00:58:56;;;;;;;22.75;16.88;;;18.80;99.90;;;;;;5134231;27;20623;-47
2022/07/23 01:01:22;;;;;;;21.20;17.17;;;18.80;99.90;;;;;;5134068;27;20250;-55
2022/07/23 01:03:48;;;;;;;23.73;18.50;;;18.90;99.90;;;;;;5134017;27;20584;-45
2022/07/23 01:06:14;;;;;;;23.55;17.95;;;18.80;99.90;;;;;;5134793;27;20519;-48
2022/07/23 01:08:39;;;;;;;25.00;18.70;;;18.90;99.90;;;;;;5134252;27;20160;-44
2022/07/23 01:11:05;;;;;;;25.13;18.05;;;18.80;99.90;;;;;;5133705;27;20236;-44
2022/07/23 01:13:31;;;;;;;23.98;19.40;;;18.80;99.90;;;;;;5133815;27;20176;-47
2022/07/23 01:15:56;;;;;;;24.23;19.23;;;18.80;99.90;;;;;;5133825;27;20168;-44
2022/07/23 01:18:22;;;;;;;26.63;21.63;;;18.90;99.90;;;;;;5133953;27;20622;-57
2022/07/23 01:20:47;;;;;;;28.02;20.58;;;18.80;99.90;;;;;;5133706;27;20166;-55
2022/07/23 01:23:13;;;;;;;23.67;19.63;;;18.90;99.90;;;;;;5134073;27;20160;-54
2022/07/23 01:25:48;;;;;;;24.00;18.50;;;18.80;99.90;;;;;;5133934;27;20170;-56
2022/07/23 01:28:13;;;;;;;24.20;18.75;;;18.80;99.90;;;;;;5133875;27;20163;-45
2022/07/23 01:30:39;;;;;;;22.95;17.63;;;18.70;99.90;;;;;;5133739;27;20235;-52
2022/07/23 01:33:05;;;;;;;23.20;17.58;;;18.60;99.90;;;;;;5133483;27;20160;-51
2022/07/23 01:35:31;;;;;;;28.02;16.90;;;18.60;99.90;;;;;;5133427;27;20163;-56
2022/07/23 01:37:56;;;;;;;24.80;17.27;;;18.60;99.90;;;;;;5133339;27;20160;-57
2022/07/23 01:40:22;;;;;;;19.00;16.27;;;18.50;99.90;;;;;;5133374;27;20297;-56
2022/07/23 01:42:48;;;;;;;23.85;16.70;;;18.50;99.90;;;;;;5133309;27;20168;-55
2022/07/23 01:45:13;;;;;;;22.73;17.77;;;18.40;99.90;;;;;;5133305;27;20172;-46
2022/07/23 01:47:39;;;;;;;21.92;18.00;;;18.40;99.90;;;;;;5133586;27;20172;-57
2022/07/23 01:50:05;;;;;;;23.67;17.20;;;18.40;99.90;;;;;;5133212;27;20198;-56
2022/07/23 01:52:31;;;;;;;24.65;18.92;;;18.30;99.90;;;;;;5114794;27;20224;-53
2022/07/23 01:54:56;;;;;;;25.38;17.17;;;18.20;99.90;;;;;;5133466;27;20168;-55
2022/07/23 01:57:22;;;;;;;22.80;18.17;;;18.30;99.90;;;;;;5133138;27;20168;-56
2022/07/23 01:59:47;;;;;;;25.30;19.85;;;18.20;99.90;;;;;;5133183;27;20208;-55
2022/07/23 02:02:13;;;;;;;27.73;21.15;;;18.10;99.90;;;;;;5133376;27;20661;-54
2022/07/23 02:04:38;;;;;;;25.73;20.23;;;18.10;99.90;;;;;;5133503;27;20191;-58
2022/07/23 02:07:05;;;;;;;29.80;20.23;;;18.20;99.90;;;;;;5132851;27;20164;-57
2022/07/23 02:09:31;;;;;;;26.75;20.27;;;18.20;99.90;;;;;;5114517;27;20164;-57
2022/07/23 02:11:57;;;;;;;31.02;20.38;;;18.10;99.90;;;;;;5132859;27;20670;-58
2022/07/23 02:14:23;;;;;;;25.58;19.70;;;18.10;99.90;;;;;;5132891;27;20178;-57
2022/07/23 02:16:49;;;;;;;28.63;20.75;;;18.10;99.90;;;;;;5133114;27;20627;-57
2022/07/23 02:19:14;;;;;;;27.52;20.85;;;18.00;99.90;;;;;;5132834;27;20240;-56
2022/07/23 02:21:40;;;;;;;28.20;20.35;;;17.80;99.90;;;;;;5133208;27;20164;-57
2022/07/23 02:24:06;;;;;;;21.80;17.33;;;18.00;99.90;;;;;;5132803;27;20164;-58
2022/07/23 02:26:34;;;;;;;21.80;16.55;;;18.00;99.90;;;;;;5133056;27;20263;-58
2022/07/23 02:29:00;;;;;;;18.08;14.48;;;17.90;99.90;;;;;;5133005;27;20179;-56
2022/07/23 02:31:26;;;;;;;16.65;13.73;;;17.90;99.90;;;;;;5132988;27;20256;-49
2022/07/23 02:33:51;;;;;;;13.63;12.20;;;17.70;99.90;;;;;;5132759;27;20167;-49
2022/07/23 02:36:17;;;;;;;13.57;12.15;;;17.70;99.90;;;;;;5132837;27;20172;-48
2022/07/23 02:38:42;;;;;;;28.13;12.23;;;17.70;99.90;;;;;;5133014;27;20196;-54
2022/07/23 02:41:08;;;;;;;19.55;13.00;;;17.60;99.90;;;;;;5133135;27;20168;-53
2022/07/23 02:43:34;;;;;;;16.35;14.27;;;17.60;99.90;;;;;;5132708;27;20164;-48
2022/07/23 02:46:00;;;;;;;16.20;13.07;;;17.60;99.90;;;;;;5132888;27;20175;-51
2022/07/23 02:48:26;;;;;;;16.83;13.73;;;17.60;99.90;;;;;;5132936;27;20551;-50
2022/07/23 02:50:52;;;;;;;18.17;14.25;;;17.50;99.90;;;;;;5132569;27;20211;-47
2022/07/23 02:53:18;;;;;;;15.90;12.70;;;17.60;99.90;;;;;;5132888;27;20251;-50
2022/07/23 02:55:43;;;;;;;17.15;13.70;;;17.50;99.90;;;;;;5132648;27;20628;-45
2022/07/23 02:58:09;;;;;;;17.45;11.63;;;17.50;99.90;;;;;;5133095;27;20317;-53
2022/07/23 03:00:34;;;;;;;19.00;13.93;;;17.40;99.90;;;;;;5132493;27;20156;-54
2022/07/23 03:03:00;;;;;;;19.10;14.40;;;17.30;99.90;;;;;;5132468;27;20172;-54
2022/07/23 03:05:25;;;;;;;17.85;15.02;;;17.20;99.90;;;;;;5132684;27;20663;-53
2022/07/23 03:07:51;;;;;;;18.90;15.30;;;17.20;99.90;;;;;;5132547;27;20615;-51
2022/07/23 03:10:17;;;;;;;21.65;16.50;;;17.20;99.90;;;;;;5132192;27;20276;-54
2022/07/23 03:12:42;;;;;;;24.23;17.67;;;17.20;99.90;;;;;;5132732;27;20175;-46
2022/07/23 03:15:08;;;;;;;23.17;17.98;;;17.20;99.90;;;;;;5132695;27;20188;-48
2022/07/23 03:17:34;;;;;;;27.30;18.75;;;17.30;99.90;;;;;;5132934;27;20203;-52
2022/07/23 03:20:00;;;;;;;21.48;17.27;;;17.20;99.90;;;;;;5136071;27;20195;-50
2022/07/23 03:22:25;;;;;;;26.50;18.58;;;17.30;99.90;;;;;;5136080;27;20179;-48
2022/07/23 03:24:54;;;;;;;27.23;19.88;;;17.20;99.90;;;;;;5136021;27;20254;-48
2022/07/23 03:27:24;;;;;;;24.35;17.98;;;17.20;99.90;;;;;;5135928;27;20184;-45
2022/07/23 03:29:51;;;;;;;29.80;20.30;;;17.20;99.90;;;;;;5135742;27;20341;-47
2022/07/23 03:32:17;;;;;;;33.53;21.30;;;17.20;99.90;;;;;;5135808;27;20204;-51
2022/07/23 03:34:42;;;;;;;27.33;21.05;;;17.20;99.90;;;;;;5136196;27;20187;-44
2022/07/23 03:37:08;;;;;;;29.13;18.60;;;17.20;99.90;;;;;;5136105;27;20199;-48
2022/07/23 03:39:33;;;;;;;31.30;19.30;;;17.20;99.90;;;;;;5135649;27;20156;-47
2022/07/23 03:42:00;;;;;;;30.90;21.90;;;17.20;99.90;;;;;;5117312;27;20263;-47
2022/07/23 03:44:26;;;;;;;27.95;21.73;;;17.30;99.90;;;;;;5135598;27;20183;-50
2022/07/23 03:46:51;;;;;;;29.10;20.95;;;17.30;99.90;;;;;;5135539;27;20164;-48
2022/07/23 03:49:17;;;;;;;28.20;19.75;;;17.30;99.90;;;;;;5135726;27;20178;-52
2022/07/23 03:51:43;;;;;;;26.73;18.38;;;17.20;99.90;;;;;;5135414;27;20208;-44
2022/07/23 03:54:08;;;;;;;31.25;15.93;;;17.10;99.90;;;;;;5135673;27;20642;-45
2022/07/23 03:56:34;;;;;;;21.35;14.95;;;16.90;99.90;;;;;;5135374;27;20605;-47
2022/07/23 03:58:59;;;;;;;19.90;15.68;;;17.00;99.90;;;;;;5135290;27;20164;-43
2022/07/23 04:01:25;;;;;;;19.83;16.17;;;17.00;99.90;;;;;;5135351;27;20251;-44
2022/07/23 04:03:51;;;;;;;23.13;16.95;;;17.00;99.90;;;;;;5135274;27;20176;-44
2022/07/23 04:06:16;;;;;;;25.70;16.70;;;17.10;99.90;;;;;;5135158;27;20206;-43
2022/07/23 04:08:42;;;;;;;20.17;15.00;;;17.10;99.90;;;;;;5135505;27;20172;-46
2022/07/23 04:11:07;;;;;;;17.75;13.75;;;16.30;99.90;;;;;;5135155;27;20765;-43
2022/07/23 04:13:33;;;;;;;19.40;14.82;;;17.10;99.90;;;;;;5135120;27;20192;-44
2022/07/23 04:15:58;;;;;;;21.33;15.10;;;17.20;99.90;;;;;;5134973;27;20535;-43
2022/07/23 04:18:24;;;;;;;18.10;15.23;;;17.20;99.90;;;;;;5134927;27;20198;-44
2022/07/23 04:20:53;;;;;;;19.48;16.10;;;17.20;99.90;;;;;;5134925;27;20246;-44
2022/07/23 04:23:19;;;;;;;24.92;14.95;;;17.20;99.90;;;;;;5134903;27;20278;-54
2022/07/23 04:25:44;;;;;;;16.92;13.48;;;17.30;99.90;;;;;;5134933;27;20243;-55
2022/07/23 04:28:10;;;;;;;16.48;12.05;;;17.30;99.90;;;;;;5135144;27;20164;-53
2022/07/23 04:30:36;;;;;;;17.58;13.25;;;17.10;99.90;;;;;;5134597;27;20217;-50
2022/07/23 04:33:05;;;;;;;12.80;11.50;;;17.20;99.90;;;;;;5134700;27;20266;-52
2022/07/23 04:35:31;;;;;;;16.85;12.10;;;17.20;99.90;;;;;;5134572;27;20153;-51
2022/07/23 04:37:56;;;;;;;17.15;13.35;;;17.20;99.90;;;;;;5134571;27;20171;-48
2022/07/23 04:40:22;;;;;;;17.85;13.98;;;17.20;99.90;;;;;;5116134;27;20216;-56
2022/07/23 04:42:47;;;;;;;16.45;13.55;;;17.20;99.90;;;;;;5134615;27;20164;-52
2022/07/23 04:45:13;;;;;;;19.88;14.27;;;17.20;99.90;;;;;;5134510;27;20176;-49
2022/07/23 04:47:38;;;;;;;18.30;13.55;;;17.30;99.90;;;;;;5134948;27;20167;-54
2022/07/23 04:50:04;;;;;;;16.77;14.32;;;17.40;99.90;;;;;;5134292;27;20512;-52
2022/07/23 04:52:30;;;;;;;20.77;16.05;;;17.50;99.90;;;;;;5116217;27;20240;-56
2022/07/23 04:54:55;;;;;;;18.92;14.23;;;17.70;99.90;;;;;;5134533;27;20168;-56
2022/07/23 04:57:21;;;;;;;20.20;15.68;;;17.80;99.90;;;;;;5134203;27;20240;-56
2022/07/23 04:59:47;;;;;;;25.25;17.30;;;17.80;99.90;;;;;;5134409;27;20172;-54
2022/07/23 05:02:12;;;;;;;31.30;17.08;;;17.90;99.90;;;;;;5134078;27;20168;-48
2022/07/23 05:04:38;;;;;;;23.73;16.08;;;17.80;99.90;;;;;;5134676;27;20199;-46
2022/07/23 05:07:04;;;;;;;21.05;14.57;;;17.90;99.90;;;;;;5133985;27;20622;-48
2022/07/23 05:09:29;;;;;;;19.42;15.02;;;17.80;99.90;;;;;;5133828;27;20170;-45
2022/07/23 05:11:55;;;;;;;20.33;14.73;;;17.90;99.90;;;;;;5133876;27;20276;-47
2022/07/23 05:14:20;;;;;;;20.23;15.23;;;18.00;99.90;;;;;;5134156;27;20248;-43
2022/07/23 05:16:46;;;;;;;29.20;14.15;;;18.00;99.90;;;;;;5133827;27;20171;-48
2022/07/23 05:19:12;;;;;;;16.58;12.98;;;18.10;99.90;;;;;;5134152;27;20251;-44
2022/07/23 05:21:38;;;;;;;20.17;14.07;;;18.20;99.90;;;;;;5134546;27;20201;-49
2022/07/23 05:24:04;;;;;;;23.27;13.77;;;18.20;99.90;;;;;;5133702;27;20164;-49
2022/07/23 05:26:29;;;;;;;19.55;13.18;;;18.20;99.90;;;;;;5133605;27;20168;-48
2022/07/23 05:28:55;;;;;;;19.67;13.52;;;18.20;99.90;;;;;;5133642;27;20187;-49
2022/07/23 05:31:20;;;;;;;16.33;13.25;;;18.30;99.90;;;;;;5133401;27;20225;-47
2022/07/23 05:33:46;;;;;;;17.17;12.80;;;18.30;99.90;;;;;;5133736;27;20191;-54
2022/07/23 05:36:11;;;;;;;20.08;13.00;;;18.30;99.90;;;;;;5133790;27;20670;-56
2022/07/23 05:38:37;;;;;;;15.55;11.57;;;18.00;99.90;;;;;;5133764;27;20517;-54
2022/07/23 05:41:03;;;;;;;25.17;12.85;;;18.40;99.90;;;;;;5132959;27;20163;-56
2022/07/23 05:43:28;;;;;;;20.58;14.02;;;18.40;99.90;;;;;;5133320;27;20182;-56
2022/07/23 05:45:54;;;;;;;17.17;12.25;;;18.70;99.90;;;;;;5133278;27;20164;-54
2022/07/23 05:48:20;;;;;;;17.48;13.80;;;18.80;99.90;;;;;;5133301;27;20168;-56
2022/07/23 05:50:47;;;;;;;18.70;13.02;;;18.90;99.90;;;;;;5133266;27;20203;-55
2022/07/23 05:53:12;;;;;;;19.02;14.25;;;19.10;99.90;;;;;;5133176;27;20167;-50
2022/07/23 05:55:38;;;;;;;20.30;12.85;;;19.10;99.90;;;;;;5133446;27;20175;-48
2022/07/23 05:58:04;;;;;;;18.02;14.20;;;19.10;99.90;;;;;;5114806;27;20156;-43
2022/07/23 06:00:30;;;;;;;21.10;14.50;;;19.30;99.90;;;;;;5133028;27;20164;-43
2022/07/23 06:02:55;;;;;;;21.80;15.60;;;19.40;99.90;;;;;;5133016;27;20540;-48
2022/07/23 06:05:21;;;;;;;27.08;17.77;;;19.40;99.90;;;;;;5133035;27;20164;-43
2022/07/23 06:07:47;;;;;;;29.13;17.30;;;19.60;99.90;;;;;;5133007;27;20174;-44
2022/07/23 06:10:12;;;;;;;26.00;17.67;;;19.70;99.90;;;;;;5132695;27;20219;-43
2022/07/23 06:12:38;;;;;;;23.02;16.15;;;19.60;99.90;;;;;;5133193;27;20250;-52
2022/07/23 06:15:04;;;;;;;24.45;15.35;;;19.70;99.90;;;;;;5133182;27;20255;-46
2022/07/23 06:17:29;;;;;;;20.88;15.95;;;19.60;99.90;;;;;;5132951;27;20206;-49
2022/07/23 06:19:55;;;;;;;21.95;16.75;;;19.70;99.90;;;;;;5132558;27;20639;-51
2022/07/23 06:22:22;;;;;;;24.45;17.40;;;19.90;99.90;;;;;;5132816;27;20160;-52
2022/07/23 06:24:48;;;;;;;26.75;17.35;;;20.00;99.90;;;;;;5133100;27;20304;-56
2022/07/23 06:27:14;;;;;;;20.58;15.85;;;20.00;99.90;;;;;;5132765;27;20168;-48
2022/07/23 06:29:40;;;;;;;23.65;17.08;;;20.00;99.90;;;;;;5133216;27;20172;-52
2022/07/23 06:32:06;;;;;;;24.85;16.80;;;20.60;99.90;;;;;;5132658;27;20196;-46
2022/07/23 06:34:32;;;;;;;25.60;17.75;;;20.20;99.90;;;;;;5132809;28;20160;-51
2022/07/23 06:36:58;;;;;;;22.42;17.10;;;20.30;99.90;;;;;;5132205;27;20683;-49
2022/07/23 06:39:24;;;;;;;33.50;18.27;;;20.30;99.90;;;;;;5132651;27;20175;-52
2022/07/23 06:41:50;;;;;;;23.80;18.20;;;20.30;99.90;;;;;;5132711;27;20160;-51
2022/07/23 06:44:15;;;;;;;23.85;17.30;;;20.50;99.90;;;;;;5132771;27;20202;-54
2022/07/23 06:46:41;;;;;;;21.75;17.95;;;20.50;99.90;;;;;;5132967;27;20160;-50
2022/07/23 06:49:07;;;;;;;22.90;17.50;;;20.50;99.90;;;;;;5132864;27;20172;-52
2022/07/23 06:51:32;;;;;;;20.40;17.27;;;20.60;99.90;;;;;;5132547;27;20207;-54
2022/07/23 06:53:58;;;;;;;22.55;16.33;;;20.70;99.90;;;;;;5135484;27;20162;-50
2022/07/23 06:56:24;;;;;;;27.63;16.83;;;20.80;99.90;;;;;;5136740;27;20172;-51
2022/07/23 06:58:50;;;;;;;25.58;17.15;;;20.90;99.90;;;;;;5136653;27;20167;-48
2022/07/23 07:01:15;;;;;;;22.15;16.58;;;20.90;99.90;;;;;;5136187;27;20207;-52
2022/07/23 07:03:41;;;;;;;20.92;15.68;;;21.00;99.90;;;;;;5136519;27;20167;-55
2022/07/23 07:06:06;;;;;;;23.80;16.70;;;21.20;99.90;;;;;;5136631;27;20164;-55
2022/07/23 07:08:32;;;;;;;21.10;15.68;;;21.10;99.90;;;;;;5136580;27;20175;-56
2022/07/23 07:10:58;;;;;;;21.88;15.90;;;21.20;99.90;;;;;;5136037;27;20674;-49
2022/07/23 07:13:23;;;;;;;26.63;16.90;;;21.30;99.90;;;;;;5136181;27;20166;-51
2022/07/23 07:15:49;;;;;;;25.45;18.08;;;21.50;99.90;;;;;;5136312;27;20679;-53
2022/07/23 07:18:14;;;;;;;23.20;17.98;;;21.30;99.90;;;;;;5136083;27;20164;-51
2022/07/23 07:20:40;;;;;;;25.92;16.95;;;21.10;99.90;;;;;;5136320;27;20164;-46
2022/07/23 07:23:05;;;;;;;20.92;17.08;;;21.10;99.90;;;;;;5135712;27;20633;-45
2022/07/23 07:25:31;;;;;;;21.42;17.38;;;21.10;99.90;;;;;;5117310;27;20167;-50
2022/07/23 07:27:56;;;;;;;21.70;17.80;;;21.10;99.90;;;;;;5117624;27;20195;-50
2022/07/23 07:30:22;;;;;;;23.73;18.60;;;21.00;99.90;;;;;;5136044;27;20203;-45
2022/07/23 07:32:48;;;;;;;24.25;17.63;;;20.90;99.90;;;;;;5135739;27;20243;-45
2022/07/23 07:35:13;;;;;;;22.20;16.80;;;21.10;99.90;;;;;;5135777;27;20193;-44
2022/07/23 07:37:39;;;;;;;25.48;17.30;;;21.20;99.90;;;;;;5135769;27;20160;-44
2022/07/23 07:40:05;;;;;;;23.33;17.10;;;21.50;99.90;;;;;;5135554;27;20172;-46
2022/07/23 07:42:32;;;;;;;20.20;15.70;;;21.70;99.90;;;;;;5135591;27;20176;-44
2022/07/23 07:44:58;;;;;;;25.77;17.13;;;22.00;99.90;;;;;;5135609;27;20176;-44
2022/07/23 07:47:23;;;;;;;29.67;18.98;;;22.10;99.90;;;;;;5135379;27;20156;-44
2022/07/23 07:49:49;;;;;;;29.35;19.55;;;22.00;99.90;;;;;;5135208;27;20213;-45
2022/07/23 07:52:14;;;;;;;25.20;19.20;;;22.00;99.90;;;;;;5135211;27;20231;-54
2022/07/23 07:54:40;;;;;;;24.75;19.60;;;21.60;99.90;;;;;;5135429;27;20500;-44
2022/07/23 07:57:06;;;;;;;26.38;19.42;;;21.50;99.90;;;;;;5135321;27;20182;-43
2022/07/23 07:59:31;;;;;;;26.75;20.05;;;21.80;99.90;;;;;;5135105;27;20192;-45
2022/07/23 08:01:57;;;;;;;44.78;22.88;;;21.70;99.90;;;;;;5134927;27;20172;-42
2022/07/23 08:04:22;;;;;;;27.05;20.33;;;21.80;99.90;;;;;;5116217;27;20254;-44
2022/07/23 08:06:48;;;;;;;28.77;22.60;;;22.10;99.90;;;;;;5134641;27;20243;-44
2022/07/23 08:09:13;;;;;;;24.70;20.92;;;22.00;99.90;;;;;;5134897;27;20168;-44
2022/07/23 08:11:39;;;;;;;28.75;22.40;;;22.10;99.90;;;;;;5135002;27;20228;-51
2022/07/23 08:14:05;;;;;;;28.95;20.92;;;22.20;99.90;;;;;;5135045;27;20201;-54
2022/07/23 08:16:31;;;;;;;24.90;19.30;;;22.20;99.90;;;;;;5134859;27;20182;-46
2022/07/23 08:18:56;;;;;;;24.45;18.38;;;22.30;99.90;;;;;;5134964;27;20197;-50
2022/07/23 08:21:22;;;;;;;24.42;17.70;;;22.50;99.90;;;;;;5134762;27;20186;-55
2022/07/23 08:23:48;;;;;;;24.27;18.65;;;22.40;99.90;;;;;;5134830;27;20171;-57
2022/07/23 08:26:13;;;;;;;25.85;19.20;;;22.60;99.90;;;;;;5134885;27;20258;-56
2022/07/23 08:28:39;;;;;;;25.38;18.30;;;22.90;99.90;;;;;;5135136;27;20160;-56
2022/07/23 08:31:05;;;;;;;23.50;18.23;;;23.00;99.90;;;;;;5116261;27;20668;-57
2022/07/23 08:33:31;;;;;;;29.02;18.25;;;22.80;99.90;;;;;;5134861;27;20167;-56
2022/07/23 08:35:57;;;;;;;21.42;16.00;;;22.70;99.90;;;;;;5134600;27;20221;-57
2022/07/23 08:38:23;;;;;;;18.13;14.18;;;22.80;99.90;;;;;;5134522;27;20160;-56
2022/07/23 08:40:51;;;;;;;21.08;15.48;;;23.00;99.90;;;;;;5116123;27;20508;-56
2022/07/23 08:43:19;;;;;;;19.30;14.45;;;23.00;99.90;;;;;;5134465;27;20163;-56
2022/07/23 08:45:47;;;;;;;21.58;15.68;;;23.10;99.90;;;;;;5134367;27;20172;-56
2022/07/23 08:48:15;;;;;;;19.17;14.30;;;23.30;99.90;;;;;;5134236;27;20159;-56
2022/07/23 08:50:46;;;;;;;16.70;13.70;;;23.30;99.90;;;;;;5134760;27;20238;-58
2022/07/23 08:53:12;;;;;;;17.30;13.85;;;23.20;99.90;;;;;;5116277;27;20175;-53
2022/07/23 08:55:38;;;;;;;17.50;12.68;;;23.20;99.90;;;;;;5134073;27;20657;-55
2022/07/23 08:58:04;;;;;;;21.38;12.95;;;23.40;99.90;;;;;;5134205;27;20168;-54
2022/07/23 09:00:30;;;;;;;16.27;10.90;;;23.20;99.90;;;;;;5134114;27;20168;-51
2022/07/23 09:02:55;;;;;;;15.00;11.27;;;23.40;99.90;;;;;;5134005;27;20202;-56
2022/07/23 09:05:21;;;;;;;18.75;13.07;;;23.70;99.90;;;;;;5134055;27;20206;-48
2022/07/23 09:08:07;;;;;;;18.38;13.80;;;23.40;99.90;;;;;;5133925;27;20168;-53
2022/07/23 09:10:53;;;;;;;19.25;13.45;;;23.60;99.90;;;;;;5133288;27;20306;-49
2022/07/23 09:13:36;;;;;;;17.63;13.50;;;23.50;99.90;;;;;;5134178;27;20188;-49
2022/07/23 09:16:10;;;;;;;19.92;12.25;;;23.70;99.90;;;;;;5132627;27;20540;-48
2022/07/23 09:18:41;;;;;;;15.75;11.43;;;23.80;99.90;;;;;;5133610;27;20697;-56
2022/07/23 09:21:09;;;;;;;17.02;12.52;;;23.90;99.90;;;;;;5134324;27;20175;-56
2022/07/23 09:24:02;;;;;;;15.00;12.00;;;23.80;99.90;;;;;;5133898;27;20164;-56
2022/07/23 09:26:32;;;;;;;18.30;12.88;;;23.80;99.90;;;;;;5115319;27;20560;-56
2022/07/23 09:29:13;;;;;;;13.95;11.40;;;23.80;99.90;;;;;;5133462;27;20164;-56
2022/07/23 09:31:43;;;;;;;16.85;13.23;;;24.10;99.90;;;;;;5133693;27;20302;-56
2022/07/23 09:34:14;;;;;;;16.63;11.90;;;24.30;99.90;;;;;;5133889;27;20520;-57
2022/07/23 09:36:40;;;;;;;15.45;12.23;;;24.30;99.90;;;;;;5133969;27;20553;-55
2022/07/23 09:39:07;;;;;;;13.98;11.05;;;24.30;99.90;;;;;;5133628;27;20195;-51
2022/07/23 09:41:42;;;;;;;16.38;12.48;;;24.30;99.90;;;;;;5132956;27;20268;-57
2022/07/23 09:44:18;;;;;;;16.60;12.10;;;24.50;99.90;;;;;;5133342;27;20165;-55
2022/07/23 09:46:48;;;;;;;14.90;10.60;;;24.50;99.90;;;;;;5133300;27;20176;-55
2022/07/23 09:49:18;;;;;;;15.02;10.02;;;24.70;99.90;;;;;;5133361;27;20168;-56
2022/07/23 09:51:54;;;;;;;12.80;10.88;;;24.70;99.90;;;;;;5132675;27;20226;-55
2022/07/23 09:54:26;;;;;;;15.68;10.55;;;24.70;99.90;;;;;;5133368;27;20260;-56
2022/07/23 09:56:53;;;;;;;13.38;9.88;;;24.50;99.90;;;;;;5132323;27;20261;-53
2022/07/23 09:59:25;;;;;;;20.48;10.13;;;24.70;99.90;;;;;;5133118;27;20164;-55
2022/07/23 10:01:53;;;;;;;20.85;10.95;;;24.90;99.90;;;;;;5132722;27;20167;-53
2022/07/23 10:04:20;;;;;;;14.25;11.00;;;24.70;99.90;;;;;;5132563;27;20171;-55
2022/07/23 10:06:46;;;;;;;14.73;10.27;;;24.80;99.90;;;;;;5132271;27;20588;-56
2022/07/23 10:09:15;;;;;;;13.07;9.82;;;24.80;99.90;;;;;;5132747;27;20171;-44
2022/07/23 10:11:41;;;;;;;10.80;9.68;;;25.10;99.90;;;;;;5132324;27;20709;-44
2022/07/23 10:14:08;;;;;;;9.52;8.52;;;25.30;99.90;;;;;;5133049;28;20163;-58
2022/07/23 10:16:34;;;;;;;11.10;8.70;;;25.10;99.90;;;;;;5132569;27;20191;-49
2022/07/23 10:19:00;;;;;;;12.65;8.52;;;25.10;99.90;;;;;;5132723;27;20627;-46
2022/07/23 10:21:47;;;;;;;11.35;9.38;;;25.10;99.90;;;;;;5131395;27;20167;-47
2022/07/23 10:24:45;;;;;;;10.32;9.20;;;25.20;99.90;;;;;;5132692;27;20171;-46
2022/07/23 10:27:38;;;;;;;16.10;10.35;;;25.40;99.90;;;;;;5135019;27;20204;-52
2022/07/23 10:30:13;;;;;;;8.20;5.60;;;25.70;99.90;;;;;;5137257;27;20204;-53
2022/07/23 10:33:14;;;;;;;8.63;6.80;;;25.80;99.90;;;;;;5137044;27;20218;-56
2022/07/23 10:36:03;;;;;;;7.07;6.30;;;25.40;99.90;;;;;;5137153;27;20232;-54
2022/07/23 10:38:46;;;;;;;10.50;7.90;;;25.60;99.90;;;;;;5136794;27;20167;-56
2022/07/23 10:41:11;;;;;;;10.68;8.20;;;25.50;99.90;;;;;;5137043;27;20565;-54
2022/07/23 10:43:37;;;;;;;8.43;7.55;;;25.60;99.90;;;;;;5137064;27;20159;-53
2022/07/23 10:49:26;;;;;;;9.15;7.80;;;25.20;99.90;;;;;;5094160;27;20179;-54
2022/07/23 10:52:13;;;;;;;9.45;7.93;;;25.30;99.90;;;;;;5136287;27;20644;-51
2022/07/23 10:54:42;;;;;;;9.13;7.60;;;25.70;99.90;;;;;;5136823;27;20179;-57
2022/07/23 10:57:09;;;;;;;17.80;8.15;;;25.80;99.90;;;;;;5117899;27;20687;-56
2022/07/23 11:00:12;;;;;;;9.90;7.50;;;25.90;99.90;;;;;;5135891;27;20156;-56
2022/07/23 11:02:39;;;;;;;10.57;5.47;;;26.10;99.90;;;;;;5136465;27;20163;-56
2022/07/23 11:05:07;;;;;;;8.07;5.90;;;26.10;99.90;;;;;;5136216;27;20207;-56
2022/07/23 11:07:34;;;;;;;6.13;5.53;;;26.10;99.90;;;;;;5135873;27;20163;-54
2022/07/23 11:10:00;;;;;;;9.93;6.47;;;26.30;99.90;;;;;;5135521;27;20229;-55
2022/07/23 11:12:29;;;;;;;5.57;4.80;;;26.30;99.90;;;;;;5135908;27;20733;-57
2022/07/23 11:15:12;;;;;;;7.35;5.00;;;26.40;99.90;;;;;;5135857;27;20634;-57
2022/07/23 11:17:42;;;;;;;9.20;5.63;;;26.10;99.90;;;;;;5136995;27;20178;-57
2022/07/23 11:20:11;;;;;;;7.82;5.45;;;26.30;99.90;;;;;;5136092;27;20159;-48
2022/07/23 11:22:55;;;;;;;5.25;4.80;;;26.50;99.90;;;;;;5136252;27;20196;-53
2022/07/23 11:25:29;;;;;;;7.40;4.00;;;26.40;99.90;;;;;;5136015;27;20159;-53
2022/07/23 11:28:08;;;;;;;5.22;4.28;;;26.70;99.90;;;;;;5135872;27;20613;-54
2022/07/23 11:30:33;;;;;;;3.78;3.47;;;26.60;99.90;;;;;;5135788;27;20602;-57
2022/07/23 11:33:08;;;;;;;4.82;3.28;;;26.80;99.90;;;;;;5136058;27;20266;-56
2022/07/23 11:35:35;;;;;;;4.10;3.70;;;26.90;99.90;;;;;;5135254;27;20629;-54
2022/07/23 11:38:20;;;;;;;5.18;3.60;;;26.50;99.90;;;;;;5135223;27;20638;-53
2022/07/23 11:40:58;;;;;;;5.20;3.40;;;26.50;99.90;;;;;;5135629;27;20219;-56
2022/07/23 11:43:24;;;;;;;4.45;3.80;;;26.70;99.90;;;;;;5135869;27;20245;-47
2022/07/23 11:45:53;;;;;;;4.03;3.67;;;26.90;99.90;;;;;;5135671;27;20259;-57
2022/07/23 11:48:24;;;;;;;3.50;3.20;;;26.90;99.90;;;;;;5135625;27;20163;-56
2022/07/23 11:50:52;;;;;;;5.57;4.30;;;26.90;99.90;;;;;;5135455;27;20214;-55
2022/07/23 11:53:23;;;;;;;6.63;3.83;;;27.00;99.90;;;;;;5135303;27;20159;-52
2022/07/23 11:55:48;;;;;;;4.90;3.40;;;27.20;99.90;;;;;;5135232;27;20164;-53
2022/07/23 11:58:14;;;;;;;3.63;3.05;;;27.10;99.90;;;;;;5135178;27;20238;-50
2022/07/23 12:00:41;;;;;;;7.28;3.38;;;27.40;99.90;;;;;;5135708;27;20171;-56
2022/07/23 12:03:07;;;;;;;4.43;3.72;;;27.40;99.90;;;;;;5135162;27;20171;-56
2022/07/23 12:05:36;;;;;;;4.03;3.63;;;27.20;99.90;;;;;;5135232;27;20170;-56
2022/07/23 12:08:04;;;;;;;4.28;3.85;;;27.20;99.90;;;;;;5135190;27;20623;-55
2022/07/23 12:10:44;;;;;;;4.38;3.20;;;27.20;99.90;;;;;;5135072;27;21086;-53
2022/07/23 12:13:12;;;;;;;3.70;3.25;;;27.40;99.90;;;;;;5135489;27;20170;-56
2022/07/23 12:15:49;;;;;;;8.07;3.55;;;27.40;99.90;;;;;;5135294;27;20213;-56
2022/07/23 12:18:18;;;;;;;5.60;3.67;;;27.10;99.90;;;;;;5134797;27;20159;-56
2022/07/23 12:20:48;;;;;;;5.82;2.95;;;27.30;99.90;;;;;;5116512;27;20649;-56
2022/07/23 12:23:15;;;;;;;4.43;3.20;;;27.30;99.90;;;;;;5134947;27;20178;-56
2022/07/23 12:25:44;;;;;;;2.75;2.53;;;27.30;99.90;;;;;;5134890;27;20163;-55
2022/07/23 12:28:21;;;;;;;5.07;3.25;;;27.60;99.90;;;;;;5135081;27;20626;-56
2022/07/23 12:30:55;;;;;;;7.03;3.22;;;27.90;99.90;;;;;;5134740;27;20222;-55
2022/07/23 12:33:37;;;;;;;3.78;3.03;;;27.80;99.90;;;;;;5134680;27;20167;-55
2022/07/23 12:36:06;;;;;;;4.95;2.75;;;27.70;99.90;;;;;;5134582;27;20166;-54